sensor_id;sensor_type;location;lat;lon;timestamp;P1;durP1;ratioP1;P2;durP2;ratioP2
63818;SDS011;49970;54.976;73.248;2022-12-07T00:01:23;50.78;;;24.60;;
63818;SDS011;49970;54.976;73.248;2022-12-07T00:03:53;49.03;;;21.88;;
63818;SDS011;49970;54.976;73.248;2022-12-07T00:06:27;53.95;;;23.48;;
63818;SDS011;49970;54.976;73.248;2022-12-07T00:08:53;55.40;;;25.20;;
63818;SDS011;49970;54.976;73.248;2022-12-07T00:11:20;48.30;;;23.25;;
63818;SDS011;49970;54.976;73.248;2022-12-07T00:13:50;51.45;;;24.20;;
63818;SDS011;49970;54.976;73.248;2022-12-07T00:16:28;57.38;;;24.10;;
63818;SDS011;49970;54.976;73.248;2022-12-07T00:18:56;50.95;;;23.63;;
63818;SDS011;49970;54.976;73.248;2022-12-07T00:21:24;49.80;;;23.42;;
63818;SDS011;49970;54.976;73.248;2022-12-07T00:23:52;56.08;;;22.65;;
63818;SDS011;49970;54.976;73.248;2022-12-07T00:26:22;46.58;;;22.38;;
63818;SDS011;49970;54.976;73.248;2022-12-07T00:28:54;47.58;;;22.00;;
63818;SDS011;49970;54.976;73.248;2022-12-07T00:34:12;59.67;;;24.25;;
63818;SDS011;49970;54.976;73.248;2022-12-07T00:36:43;48.38;;;24.92;;
63818;SDS011;49970;54.976;73.248;2022-12-07T00:39:09;56.90;;;25.05;;
63818;SDS011;49970;54.976;73.248;2022-12-07T00:41:36;58.30;;;27.08;;
63818;SDS011;49970;54.976;73.248;2022-12-07T00:44:02;72.63;;;28.77;;
63818;SDS011;49970;54.976;73.248;2022-12-07T00:46:29;73.60;;;26.58;;
63818;SDS011;49970;54.976;73.248;2022-12-07T00:49:00;67.55;;;28.35;;
63818;SDS011;49970;54.976;73.248;2022-12-07T00:51:26;66.43;;;27.73;;
63818;SDS011;49970;54.976;73.248;2022-12-07T00:53:56;57.03;;;26.52;;
63818;SDS011;49970;54.976;73.248;2022-12-07T00:56:28;63.67;;;25.55;;
63818;SDS011;49970;54.976;73.248;2022-12-07T00:58:55;64.57;;;27.38;;
63818;SDS011;49970;54.976;73.248;2022-12-07T01:01:24;53.47;;;27.85;;
63818;SDS011;49970;54.976;73.248;2022-12-07T01:03:55;69.13;;;28.73;;
63818;SDS011;49970;54.976;73.248;2022-12-07T01:06:22;58.55;;;28.00;;
63818;SDS011;49970;54.976;73.248;2022-12-07T01:08:49;63.63;;;28.80;;
63818;SDS011;49970;54.976;73.248;2022-12-07T01:11:17;61.80;;;25.55;;
63818;SDS011;49970;54.976;73.248;2022-12-07T01:13:50;69.40;;;27.30;;
63818;SDS011;49970;54.976;73.248;2022-12-07T01:16:17;58.45;;;28.80;;
63818;SDS011;49970;54.976;73.248;2022-12-07T01:18:46;70.35;;;28.80;;
63818;SDS011;49970;54.976;73.248;2022-12-07T01:21:18;54.78;;;25.67;;
63818;SDS011;49970;54.976;73.248;2022-12-07T01:23:46;52.65;;;26.90;;
63818;SDS011;49970;54.976;73.248;2022-12-07T01:26:23;63.60;;;26.77;;
63818;SDS011;49970;54.976;73.248;2022-12-07T01:28:50;46.03;;;25.63;;
63818;SDS011;49970;54.976;73.248;2022-12-07T01:31:18;62.50;;;26.60;;
63818;SDS011;49970;54.976;73.248;2022-12-07T01:33:47;69.32;;;27.48;;
63818;SDS011;49970;54.976;73.248;2022-12-07T01:36:19;52.15;;;27.75;;
63818;SDS011;49970;54.976;73.248;2022-12-07T01:38:55;58.22;;;25.95;;
63818;SDS011;49970;54.976;73.248;2022-12-07T01:41:24;68.78;;;26.38;;
63818;SDS011;49970;54.976;73.248;2022-12-07T01:44:08;57.08;;;26.65;;
63818;SDS011;49970;54.976;73.248;2022-12-07T01:46:44;60.83;;;26.05;;
63818;SDS011;49970;54.976;73.248;2022-12-07T01:54:44;57.53;;;25.88;;
63818;SDS011;49970;54.976;73.248;2022-12-07T01:57:11;57.10;;;26.15;;
63818;SDS011;49970;54.976;73.248;2022-12-07T01:59:41;76.07;;;27.33;;
63818;SDS011;49970;54.976;73.248;2022-12-07T02:02:20;64.18;;;27.55;;
63818;SDS011;49970;54.976;73.248;2022-12-07T02:05:04;63.35;;;26.85;;
63818;SDS011;49970;54.976;73.248;2022-12-07T02:07:32;72.18;;;27.48;;
63818;SDS011;49970;54.976;73.248;2022-12-07T02:10:15;69.03;;;29.58;;
63818;SDS011;49970;54.976;73.248;2022-12-07T02:12:46;56.10;;;25.60;;
63818;SDS011;49970;54.976;73.248;2022-12-07T02:15:21;48.22;;;24.73;;
63818;SDS011;49970;54.976;73.248;2022-12-07T02:23:45;75.68;;;26.73;;
63818;SDS011;49970;54.976;73.248;2022-12-07T02:29:43;46.72;;;20.02;;
63818;SDS011;49970;54.976;73.248;2022-12-07T02:32:19;50.17;;;23.17;;
63818;SDS011;49970;54.976;73.248;2022-12-07T02:37:43;55.92;;;19.95;;
63818;SDS011;49970;54.976;73.248;2022-12-07T02:40:31;49.95;;;20.23;;
63818;SDS011;49970;54.976;73.248;2022-12-07T02:43:09;61.55;;;23.80;;
63818;SDS011;49970;54.976;73.248;2022-12-07T02:45:40;60.08;;;21.20;;
63818;SDS011;49970;54.976;73.248;2022-12-07T02:48:10;59.55;;;21.20;;
63818;SDS011;49970;54.976;73.248;2022-12-07T02:50:52;48.45;;;21.85;;
63818;SDS011;49970;54.976;73.248;2022-12-07T02:55:56;51.92;;;23.63;;
63818;SDS011;49970;54.976;73.248;2022-12-07T02:58:27;55.88;;;23.25;;
63818;SDS011;49970;54.976;73.248;2022-12-07T03:01:30;62.30;;;25.00;;
63818;SDS011;49970;54.976;73.248;2022-12-07T03:07:15;47.30;;;22.25;;
63818;SDS011;49970;54.976;73.248;2022-12-07T03:09:45;57.17;;;23.15;;
63818;SDS011;49970;54.976;73.248;2022-12-07T03:12:23;47.47;;;25.17;;
63818;SDS011;49970;54.976;73.248;2022-12-07T03:15:07;47.58;;;22.35;;
63818;SDS011;49970;54.976;73.248;2022-12-07T03:17:40;48.45;;;22.20;;
63818;SDS011;49970;54.976;73.248;2022-12-07T03:20:14;55.95;;;23.55;;
63818;SDS011;49970;54.976;73.248;2022-12-07T03:22:44;58.78;;;23.13;;
63818;SDS011;49970;54.976;73.248;2022-12-07T03:25:13;56.03;;;22.88;;
63818;SDS011;49970;54.976;73.248;2022-12-07T03:27:44;54.92;;;24.58;;
63818;SDS011;49970;54.976;73.248;2022-12-07T03:31:16;70.97;;;25.17;;
63818;SDS011;49970;54.976;73.248;2022-12-07T03:33:29;50.63;;;23.30;;
63818;SDS011;49970;54.976;73.248;2022-12-07T03:36:35;72.45;;;23.17;;
63818;SDS011;49970;54.976;73.248;2022-12-07T03:39:16;42.55;;;21.63;;
63818;SDS011;49970;54.976;73.248;2022-12-07T03:41:47;55.17;;;24.05;;
63818;SDS011;49970;54.976;73.248;2022-12-07T03:44:14;44.15;;;22.23;;
63818;SDS011;49970;54.976;73.248;2022-12-07T03:52:00;57.10;;;25.70;;
63818;SDS011;49970;54.976;73.248;2022-12-07T03:54:36;52.80;;;24.58;;
63818;SDS011;49970;54.976;73.248;2022-12-07T03:57:13;57.63;;;28.08;;
63818;SDS011;49970;54.976;73.248;2022-12-07T03:59:40;79.65;;;26.40;;
63818;SDS011;49970;54.976;73.248;2022-12-07T04:02:14;59.95;;;26.58;;
63818;SDS011;49970;54.976;73.248;2022-12-07T04:04:41;62.35;;;28.25;;
63818;SDS011;49970;54.976;73.248;2022-12-07T04:07:09;62.47;;;27.23;;
63818;SDS011;49970;54.976;73.248;2022-12-07T04:09:36;75.03;;;26.23;;
63818;SDS011;49970;54.976;73.248;2022-12-07T04:12:08;58.22;;;27.50;;
63818;SDS011;49970;54.976;73.248;2022-12-07T04:14:40;61.72;;;28.83;;
63818;SDS011;49970;54.976;73.248;2022-12-07T04:17:08;68.07;;;31.40;;
63818;SDS011;49970;54.976;73.248;2022-12-07T04:19:37;59.97;;;27.35;;
63818;SDS011;49970;54.976;73.248;2022-12-07T04:22:04;67.32;;;28.77;;
63818;SDS011;49970;54.976;73.248;2022-12-07T04:24:31;58.67;;;27.42;;
63818;SDS011;49970;54.976;73.248;2022-12-07T04:26:58;64.95;;;29.73;;
63818;SDS011;49970;54.976;73.248;2022-12-07T04:29:29;75.03;;;27.15;;
63818;SDS011;49970;54.976;73.248;2022-12-07T04:31:55;71.05;;;26.77;;
63818;SDS011;49970;54.976;73.248;2022-12-07T04:34:32;69.28;;;27.95;;
63818;SDS011;49970;54.976;73.248;2022-12-07T04:37:00;66.25;;;25.60;;
63818;SDS011;49970;54.976;73.248;2022-12-07T04:39:30;76.20;;;28.92;;
63818;SDS011;49970;54.976;73.248;2022-12-07T04:42:07;62.72;;;28.27;;
63818;SDS011;49970;54.976;73.248;2022-12-07T04:44:38;70.50;;;26.70;;
63818;SDS011;49970;54.976;73.248;2022-12-07T04:47:05;58.33;;;24.70;;
63818;SDS011;49970;54.976;73.248;2022-12-07T04:49:31;56.22;;;26.13;;
63818;SDS011;49970;54.976;73.248;2022-12-07T04:52:08;75.55;;;31.25;;
63818;SDS011;49970;54.976;73.248;2022-12-07T04:54:34;76.15;;;30.13;;
63818;SDS011;49970;54.976;73.248;2022-12-07T04:57:00;93.30;;;34.47;;
63818;SDS011;49970;54.976;73.248;2022-12-07T04:59:26;100.55;;;35.83;;
63818;SDS011;49970;54.976;73.248;2022-12-07T05:01:53;78.57;;;33.90;;
63818;SDS011;49970;54.976;73.248;2022-12-07T05:04:19;79.88;;;35.15;;
63818;SDS011;49970;54.976;73.248;2022-12-07T05:06:51;74.03;;;32.47;;
63818;SDS011;49970;54.976;73.248;2022-12-07T05:09:17;76.68;;;31.40;;
63818;SDS011;49970;54.976;73.248;2022-12-07T05:11:43;61.47;;;26.70;;
63818;SDS011;49970;54.976;73.248;2022-12-07T05:16:45;75.68;;;33.55;;
63818;SDS011;49970;54.976;73.248;2022-12-07T05:19:18;108.65;;;36.72;;
63818;SDS011;49970;54.976;73.248;2022-12-07T05:21:45;65.22;;;27.70;;
63818;SDS011;49970;54.976;73.248;2022-12-07T05:24:17;63.55;;;27.90;;
63818;SDS011;49970;54.976;73.248;2022-12-07T05:26:43;68.82;;;27.25;;
63818;SDS011;49970;54.976;73.248;2022-12-07T05:29:11;76.00;;;35.58;;
63818;SDS011;49970;54.976;73.248;2022-12-07T05:31:39;82.35;;;36.83;;
63818;SDS011;49970;54.976;73.248;2022-12-07T05:34:06;98.70;;;38.08;;
63818;SDS011;49970;54.976;73.248;2022-12-07T05:36:32;93.88;;;36.60;;
63818;SDS011;49970;54.976;73.248;2022-12-07T05:38:58;72.22;;;32.08;;
63818;SDS011;49970;54.976;73.248;2022-12-07T05:41:25;83.07;;;32.47;;
63818;SDS011;49970;54.976;73.248;2022-12-07T05:44:10;77.70;;;32.33;;
63818;SDS011;49970;54.976;73.248;2022-12-07T05:46:36;60.50;;;29.33;;
63818;SDS011;49970;54.976;73.248;2022-12-07T05:49:03;70.38;;;28.27;;
63818;SDS011;49970;54.976;73.248;2022-12-07T05:51:29;78.38;;;30.75;;
63818;SDS011;49970;54.976;73.248;2022-12-07T05:54:05;80.95;;;32.47;;
63818;SDS011;49970;54.976;73.248;2022-12-07T05:56:31;86.25;;;31.63;;
63818;SDS011;49970;54.976;73.248;2022-12-07T05:58:57;70.85;;;31.42;;
63818;SDS011;49970;54.976;73.248;2022-12-07T06:01:42;81.10;;;31.30;;
63818;SDS011;49970;54.976;73.248;2022-12-07T06:04:08;71.70;;;28.77;;
63818;SDS011;49970;54.976;73.248;2022-12-07T06:06:40;74.50;;;29.33;;
63818;SDS011;49970;54.976;73.248;2022-12-07T06:09:06;74.80;;;29.67;;
63818;SDS011;49970;54.976;73.248;2022-12-07T06:11:32;63.30;;;27.10;;
63818;SDS011;49970;54.976;73.248;2022-12-07T06:14:17;66.00;;;26.10;;
63818;SDS011;49970;54.976;73.248;2022-12-07T06:16:43;62.20;;;25.77;;
63818;SDS011;49970;54.976;73.248;2022-12-07T06:19:09;65.72;;;26.42;;
63818;SDS011;49970;54.976;73.248;2022-12-07T06:21:36;58.85;;;25.90;;
63818;SDS011;49970;54.976;73.248;2022-12-07T06:24:02;66.47;;;22.98;;
63818;SDS011;49970;54.976;73.248;2022-12-07T06:26:28;57.85;;;23.00;;
63818;SDS011;49970;54.976;73.248;2022-12-07T06:28:55;52.45;;;21.00;;
63818;SDS011;49970;54.976;73.248;2022-12-07T06:31:26;61.25;;;18.40;;
63818;SDS011;49970;54.976;73.248;2022-12-07T06:33:56;55.97;;;18.80;;
63818;SDS011;49970;54.976;73.248;2022-12-07T06:36:30;58.30;;;23.58;;
63818;SDS011;49970;54.976;73.248;2022-12-07T06:38:58;53.58;;;21.27;;
63818;SDS011;49970;54.976;73.248;2022-12-07T06:41:24;75.63;;;23.58;;
63818;SDS011;49970;54.976;73.248;2022-12-07T06:43:50;64.60;;;22.33;;
63818;SDS011;49970;54.976;73.248;2022-12-07T06:46:17;89.05;;;22.83;;
63818;SDS011;49970;54.976;73.248;2022-12-07T06:48:54;69.38;;;24.15;;
63818;SDS011;49970;54.976;73.248;2022-12-07T06:51:21;64.55;;;21.88;;
63818;SDS011;49970;54.976;73.248;2022-12-07T06:53:47;45.10;;;19.35;;
63818;SDS011;49970;54.976;73.248;2022-12-07T06:56:13;63.75;;;18.35;;
63818;SDS011;49970;54.976;73.248;2022-12-07T06:58:40;73.95;;;21.08;;
63818;SDS011;49970;54.976;73.248;2022-12-07T07:01:10;57.13;;;20.75;;
63818;SDS011;49970;54.976;73.248;2022-12-07T07:03:41;79.90;;;22.42;;
63818;SDS011;49970;54.976;73.248;2022-12-07T07:06:08;61.38;;;19.95;;
63818;SDS011;49970;54.976;73.248;2022-12-07T07:08:35;51.55;;;18.42;;
63818;SDS011;49970;54.976;73.248;2022-12-07T07:11:03;47.38;;;15.43;;
63818;SDS011;49970;54.976;73.248;2022-12-07T07:13:29;43.15;;;16.17;;
63818;SDS011;49970;54.976;73.248;2022-12-07T07:15:56;24.23;;;13.98;;
63818;SDS011;49970;54.976;73.248;2022-12-07T07:18:22;38.65;;;13.70;;
63818;SDS011;49970;54.976;73.248;2022-12-07T07:20:49;26.50;;;11.85;;
63818;SDS011;49970;54.976;73.248;2022-12-07T07:23:16;42.38;;;11.40;;
63818;SDS011;49970;54.976;73.248;2022-12-07T07:25:47;31.88;;;11.65;;
63818;SDS011;49970;54.976;73.248;2022-12-07T07:28:14;27.55;;;11.63;;
63818;SDS011;49970;54.976;73.248;2022-12-07T07:30:43;27.45;;;12.70;;
63818;SDS011;49970;54.976;73.248;2022-12-07T07:33:10;31.10;;;12.27;;
63818;SDS011;49970;54.976;73.248;2022-12-07T07:35:37;34.90;;;10.18;;
63818;SDS011;49970;54.976;73.248;2022-12-07T07:38:04;30.55;;;9.90;;
63818;SDS011;49970;54.976;73.248;2022-12-07T07:40:31;40.70;;;11.20;;
63818;SDS011;49970;54.976;73.248;2022-12-07T07:43:03;26.65;;;10.20;;
63818;SDS011;49970;54.976;73.248;2022-12-07T07:45:29;35.65;;;11.10;;
63818;SDS011;49970;54.976;73.248;2022-12-07T07:47:55;32.63;;;10.32;;
63818;SDS011;49970;54.976;73.248;2022-12-07T07:50:22;29.25;;;10.40;;
63818;SDS011;49970;54.976;73.248;2022-12-07T07:52:48;32.97;;;10.77;;
63818;SDS011;49970;54.976;73.248;2022-12-07T07:55:15;49.00;;;11.07;;
63818;SDS011;49970;54.976;73.248;2022-12-07T07:57:41;33.92;;;10.70;;
63818;SDS011;49970;54.976;73.248;2022-12-07T08:00:08;18.23;;;9.52;;
63818;SDS011;49970;54.976;73.248;2022-12-07T08:02:39;29.75;;;11.60;;
63818;SDS011;49970;54.976;73.248;2022-12-07T08:05:06;27.45;;;9.82;;
63818;SDS011;49970;54.976;73.248;2022-12-07T08:07:33;27.60;;;9.15;;
63818;SDS011;49970;54.976;73.248;2022-12-07T08:09:59;32.05;;;10.07;;
63818;SDS011;49970;54.976;73.248;2022-12-07T08:12:25;19.45;;;9.30;;
63818;SDS011;49970;54.976;73.248;2022-12-07T08:14:51;27.58;;;9.88;;
63818;SDS011;49970;54.976;73.248;2022-12-07T08:17:17;24.30;;;9.00;;
63818;SDS011;49970;54.976;73.248;2022-12-07T08:19:44;33.05;;;11.10;;
63818;SDS011;49970;54.976;73.248;2022-12-07T08:22:10;33.45;;;12.50;;
63818;SDS011;49970;54.976;73.248;2022-12-07T08:24:41;15.40;;;9.80;;
63818;SDS011;49970;54.976;73.248;2022-12-07T08:27:09;28.98;;;10.13;;
63818;SDS011;49970;54.976;73.248;2022-12-07T08:29:42;20.70;;;12.05;;
63818;SDS011;49970;54.976;73.248;2022-12-07T08:32:09;23.67;;;9.27;;
63818;SDS011;49970;54.976;73.248;2022-12-07T08:34:35;25.65;;;9.50;;
63818;SDS011;49970;54.976;73.248;2022-12-07T08:37:02;28.45;;;10.40;;
63818;SDS011;49970;54.976;73.248;2022-12-07T08:39:28;26.83;;;11.15;;
63818;SDS011;49970;54.976;73.248;2022-12-07T08:41:55;30.73;;;10.98;;
63818;SDS011;49970;54.976;73.248;2022-12-07T08:44:21;23.83;;;9.60;;
63818;SDS011;49970;54.976;73.248;2022-12-07T08:46:48;44.00;;;11.52;;
63818;SDS011;49970;54.976;73.248;2022-12-07T08:49:23;30.98;;;11.27;;
63818;SDS011;49970;54.976;73.248;2022-12-07T08:51:58;30.98;;;12.65;;
63818;SDS011;49970;54.976;73.248;2022-12-07T08:54:24;34.55;;;11.23;;
63818;SDS011;49970;54.976;73.248;2022-12-07T08:56:51;28.92;;;10.05;;
63818;SDS011;49970;54.976;73.248;2022-12-07T08:59:20;29.80;;;10.15;;
63818;SDS011;49970;54.976;73.248;2022-12-07T09:01:46;43.65;;;9.73;;
63818;SDS011;49970;54.976;73.248;2022-12-07T09:04:17;39.80;;;12.07;;
63818;SDS011;49970;54.976;73.248;2022-12-07T09:06:44;31.00;;;10.90;;
63818;SDS011;49970;54.976;73.248;2022-12-07T09:09:20;23.65;;;11.55;;
63818;SDS011;49970;54.976;73.248;2022-12-07T09:11:46;54.40;;;12.07;;
63818;SDS011;49970;54.976;73.248;2022-12-07T09:14:13;42.22;;;12.73;;
63818;SDS011;49970;54.976;73.248;2022-12-07T09:16:41;34.30;;;11.63;;
63818;SDS011;49970;54.976;73.248;2022-12-07T09:19:10;44.78;;;11.85;;
63818;SDS011;49970;54.976;73.248;2022-12-07T09:21:36;49.28;;;14.02;;
63818;SDS011;49970;54.976;73.248;2022-12-07T09:24:05;54.88;;;12.82;;
63818;SDS011;49970;54.976;73.248;2022-12-07T09:26:31;30.00;;;12.93;;
63818;SDS011;49970;54.976;73.248;2022-12-07T09:28:57;40.55;;;13.50;;
63818;SDS011;49970;54.976;73.248;2022-12-07T09:31:23;44.13;;;13.85;;
63818;SDS011;49970;54.976;73.248;2022-12-07T09:33:59;49.85;;;14.25;;
63818;SDS011;49970;54.976;73.248;2022-12-07T09:36:26;52.60;;;13.50;;
63818;SDS011;49970;54.976;73.248;2022-12-07T09:38:54;44.63;;;13.30;;
63818;SDS011;49970;54.976;73.248;2022-12-07T09:41:20;50.58;;;15.43;;
63818;SDS011;49970;54.976;73.248;2022-12-07T09:43:48;51.30;;;14.50;;
63818;SDS011;49970;54.976;73.248;2022-12-07T09:46:15;43.42;;;16.45;;
63818;SDS011;49970;54.976;73.248;2022-12-07T09:48:45;50.30;;;15.80;;
63818;SDS011;49970;54.976;73.248;2022-12-07T09:51:17;80.88;;;17.75;;
63818;SDS011;49970;54.976;73.248;2022-12-07T09:53:49;57.10;;;17.27;;
63818;SDS011;49970;54.976;73.248;2022-12-07T09:56:17;71.75;;;18.35;;
63818;SDS011;49970;54.976;73.248;2022-12-07T09:58:45;68.55;;;19.05;;
63818;SDS011;49970;54.976;73.248;2022-12-07T10:01:18;85.45;;;17.83;;
63818;SDS011;49970;54.976;73.248;2022-12-07T10:03:50;80.10;;;20.05;;
63818;SDS011;49970;54.976;73.248;2022-12-07T10:06:18;58.35;;;17.48;;
63818;SDS011;49970;54.976;73.248;2022-12-07T10:08:45;86.10;;;20.33;;
63818;SDS011;49970;54.976;73.248;2022-12-07T10:11:11;82.70;;;22.13;;
63818;SDS011;49970;54.976;73.248;2022-12-07T10:13:41;77.65;;;17.73;;
63818;SDS011;49970;54.976;73.248;2022-12-07T10:19:24;105.22;;;20.90;;
63818;SDS011;49970;54.976;73.248;2022-12-07T10:22:07;91.85;;;18.88;;
63818;SDS011;49970;54.976;73.248;2022-12-07T10:24:43;68.97;;;17.83;;
63818;SDS011;49970;54.976;73.248;2022-12-07T10:27:17;60.58;;;18.25;;
63818;SDS011;49970;54.976;73.248;2022-12-07T10:29:58;69.72;;;19.80;;
63818;SDS011;49970;54.976;73.248;2022-12-07T10:37:55;82.05;;;21.45;;
63818;SDS011;49970;54.976;73.248;2022-12-07T10:40:25;79.57;;;19.55;;
63818;SDS011;49970;54.976;73.248;2022-12-07T10:43:02;77.85;;;20.15;;
63818;SDS011;49970;54.976;73.248;2022-12-07T10:48:45;89.53;;;18.75;;
63818;SDS011;49970;54.976;73.248;2022-12-07T11:07:55;55.03;;;18.35;;
63818;SDS011;49970;54.976;73.248;2022-12-07T11:10:45;57.13;;;16.90;;
63818;SDS011;49970;54.976;73.248;2022-12-07T11:13:42;41.95;;;14.57;;
63818;SDS011;49970;54.976;73.248;2022-12-07T11:16:19;79.25;;;18.40;;
63818;SDS011;49970;54.976;73.248;2022-12-07T11:24:20;47.33;;;14.70;;
63818;SDS011;49970;54.976;73.248;2022-12-07T11:27:29;42.10;;;15.27;;
63818;SDS011;49970;54.976;73.248;2022-12-07T11:30:14;45.05;;;17.63;;
63818;SDS011;49970;54.976;73.248;2022-12-07T11:38:57;60.00;;;16.02;;
63818;SDS011;49970;54.976;73.248;2022-12-07T11:41:20;54.95;;;16.48;;
63818;SDS011;49970;54.976;73.248;2022-12-07T11:46:43;50.55;;;17.95;;
63818;SDS011;49970;54.976;73.248;2022-12-07T11:49:42;71.25;;;24.08;;
63818;SDS011;49970;54.976;73.248;2022-12-07T11:52:25;62.03;;;19.67;;
63818;SDS011;49970;54.976;73.248;2022-12-07T11:55:17;68.03;;;19.92;;
63818;SDS011;49970;54.976;73.248;2022-12-07T11:58:03;62.20;;;18.23;;
63818;SDS011;49970;54.976;73.248;2022-12-07T12:00:50;58.47;;;19.95;;
63818;SDS011;49970;54.976;73.248;2022-12-07T12:03:28;44.47;;;19.48;;
63818;SDS011;49970;54.976;73.248;2022-12-07T12:05:59;61.78;;;20.00;;
63818;SDS011;49970;54.976;73.248;2022-12-07T12:08:46;62.85;;;21.38;;
63818;SDS011;49970;54.976;73.248;2022-12-07T12:11:19;63.85;;;20.63;;
63818;SDS011;49970;54.976;73.248;2022-12-07T12:22:39;56.63;;;18.73;;
63818;SDS011;49970;54.976;73.248;2022-12-07T12:25:50;56.00;;;20.08;;
63818;SDS011;49970;54.976;73.248;2022-12-07T12:28:31;62.00;;;20.73;;
63818;SDS011;49970;54.976;73.248;2022-12-07T12:31:05;51.97;;;20.38;;
63818;SDS011;49970;54.976;73.248;2022-12-07T12:33:45;58.85;;;21.65;;
63818;SDS011;49970;54.976;73.248;2022-12-07T12:36:23;73.18;;;22.23;;
63818;SDS011;49970;54.976;73.248;2022-12-07T12:46:51;57.90;;;25.98;;
63818;SDS011;49970;54.976;73.248;2022-12-07T12:51:45;82.40;;;28.88;;
63818;SDS011;49970;54.976;73.248;2022-12-07T12:54:22;64.63;;;26.23;;
63818;SDS011;49970;54.976;73.248;2022-12-07T12:57:09;69.13;;;28.50;;
63818;SDS011;49970;54.976;73.248;2022-12-07T13:02:25;93.82;;;30.67;;
63818;SDS011;49970;54.976;73.248;2022-12-07T13:10:22;90.72;;;36.65;;
63818;SDS011;49970;54.976;73.248;2022-12-07T13:20:55;95.88;;;35.92;;
63818;SDS011;49970;54.976;73.248;2022-12-07T13:29:07;90.18;;;37.35;;
63818;SDS011;49970;54.976;73.248;2022-12-07T13:31:48;109.97;;;39.40;;
63818;SDS011;49970;54.976;73.248;2022-12-07T13:37:01;119.20;;;42.17;;
63818;SDS011;49970;54.976;73.248;2022-12-07T13:39:44;93.78;;;39.25;;
63818;SDS011;49970;54.976;73.248;2022-12-07T13:42:27;98.93;;;39.17;;
63818;SDS011;49970;54.976;73.248;2022-12-07T13:44:59;98.75;;;42.47;;
63818;SDS011;49970;54.976;73.248;2022-12-07T13:47:52;103.75;;;41.03;;
63818;SDS011;49970;54.976;73.248;2022-12-07T13:50:30;109.03;;;39.75;;
63818;SDS011;49970;54.976;73.248;2022-12-07T13:53:07;113.78;;;43.95;;
63818;SDS011;49970;54.976;73.248;2022-12-07T13:55:44;104.82;;;42.58;;
63818;SDS011;49970;54.976;73.248;2022-12-07T13:58:21;108.88;;;40.75;;
63818;SDS011;49970;54.976;73.248;2022-12-07T14:00:48;105.15;;;44.35;;
63818;SDS011;49970;54.976;73.248;2022-12-07T14:05:41;111.25;;;45.15;;
63818;SDS011;49970;54.976;73.248;2022-12-07T14:10:39;104.60;;;43.83;;
63818;SDS011;49970;54.976;73.248;2022-12-07T14:13:24;110.25;;;45.22;;
63818;SDS011;49970;54.976;73.248;2022-12-07T14:15:56;94.50;;;41.22;;
63818;SDS011;49970;54.976;73.248;2022-12-07T14:18:38;96.80;;;40.50;;
63818;SDS011;49970;54.976;73.248;2022-12-07T14:21:18;109.95;;;41.22;;
63818;SDS011;49970;54.976;73.248;2022-12-07T14:26:34;113.60;;;45.70;;
63818;SDS011;49970;54.976;73.248;2022-12-07T14:31:57;127.22;;;49.40;;
63818;SDS011;49970;54.976;73.248;2022-12-07T14:34:29;114.53;;;46.42;;
63818;SDS011;49970;54.976;73.248;2022-12-07T14:36:55;115.35;;;46.28;;
63818;SDS011;49970;54.976;73.248;2022-12-07T14:39:31;129.75;;;48.40;;
63818;SDS011;49970;54.976;73.248;2022-12-07T14:42:02;113.25;;;45.70;;
63818;SDS011;49970;54.976;73.248;2022-12-07T14:44:29;108.60;;;44.60;;
63818;SDS011;49970;54.976;73.248;2022-12-07T14:46:55;110.15;;;47.05;;
63818;SDS011;49970;54.976;73.248;2022-12-07T14:49:21;127.40;;;49.63;;
63818;SDS011;49970;54.976;73.248;2022-12-07T14:51:57;111.63;;;43.58;;
63818;SDS011;49970;54.976;73.248;2022-12-07T14:54:24;112.70;;;46.90;;
63818;SDS011;49970;54.976;73.248;2022-12-07T14:56:55;114.85;;;48.42;;
63818;SDS011;49970;54.976;73.248;2022-12-07T14:59:21;138.43;;;47.28;;
63818;SDS011;49970;54.976;73.248;2022-12-07T15:01:47;109.90;;;45.63;;
63818;SDS011;49970;54.976;73.248;2022-12-07T15:04:13;120.55;;;47.05;;
63818;SDS011;49970;54.976;73.248;2022-12-07T15:08:04;107.25;;;42.40;;
63818;SDS011;49970;54.976;73.248;2022-12-07T15:11:55;87.03;;;38.20;;
63818;SDS011;49970;54.976;73.248;2022-12-07T15:14:22;100.00;;;41.90;;
63818;SDS011;49970;54.976;73.248;2022-12-07T15:16:59;95.93;;;38.45;;
63818;SDS011;49970;54.976;73.248;2022-12-07T15:19:25;102.05;;;38.33;;
63818;SDS011;49970;54.976;73.248;2022-12-07T15:21:52;83.18;;;36.63;;
63818;SDS011;49970;54.976;73.248;2022-12-07T15:24:19;102.20;;;40.88;;
63818;SDS011;49970;54.976;73.248;2022-12-07T15:26:46;103.47;;;40.67;;
63818;SDS011;49970;54.976;73.248;2022-12-07T15:29:12;107.70;;;42.42;;
63818;SDS011;49970;54.976;73.248;2022-12-07T15:31:42;115.15;;;44.50;;
63818;SDS011;49970;54.976;73.248;2022-12-07T15:34:08;111.07;;;46.13;;
63818;SDS011;49970;54.976;73.248;2022-12-07T15:36:35;103.82;;;42.78;;
63818;SDS011;49970;54.976;73.248;2022-12-07T15:39:01;91.32;;;40.90;;
63818;SDS011;49970;54.976;73.248;2022-12-07T15:41:28;122.28;;;44.72;;
63818;SDS011;49970;54.976;73.248;2022-12-07T15:43:55;105.60;;;42.38;;
63818;SDS011;49970;54.976;73.248;2022-12-07T15:46:40;109.93;;;41.53;;
63818;SDS011;49970;54.976;73.248;2022-12-07T15:49:15;104.72;;;44.40;;
63818;SDS011;49970;54.976;73.248;2022-12-07T15:54:17;100.15;;;39.67;;
63818;SDS011;49970;54.976;73.248;2022-12-07T15:56:45;106.68;;;41.72;;
63818;SDS011;49970;54.976;73.248;2022-12-07T15:59:12;107.53;;;41.90;;
63818;SDS011;49970;54.976;73.248;2022-12-07T16:01:48;111.55;;;41.80;;
63818;SDS011;49970;54.976;73.248;2022-12-07T16:04:15;108.07;;;42.17;;
63818;SDS011;49970;54.976;73.248;2022-12-07T16:06:46;99.05;;;38.47;;
63818;SDS011;49970;54.976;73.248;2022-12-07T16:09:12;99.45;;;41.22;;
63818;SDS011;49970;54.976;73.248;2022-12-07T16:11:39;97.00;;;40.97;;
63818;SDS011;49970;54.976;73.248;2022-12-07T16:14:05;101.88;;;42.97;;
63818;SDS011;49970;54.976;73.248;2022-12-07T16:16:41;106.90;;;40.75;;
63818;SDS011;49970;54.976;73.248;2022-12-07T16:19:07;105.15;;;40.35;;
63818;SDS011;49970;54.976;73.248;2022-12-07T16:21:34;97.47;;;40.80;;
63818;SDS011;49970;54.976;73.248;2022-12-07T16:24:12;100.07;;;38.38;;
63818;SDS011;49970;54.976;73.248;2022-12-07T16:26:46;94.00;;;39.00;;
63818;SDS011;49970;54.976;73.248;2022-12-07T16:29:12;109.20;;;41.85;;
63818;SDS011;49970;54.976;73.248;2022-12-07T16:31:39;131.82;;;49.53;;
63818;SDS011;49970;54.976;73.248;2022-12-07T16:34:16;136.10;;;50.72;;
63818;SDS011;49970;54.976;73.248;2022-12-07T16:36:43;124.63;;;46.45;;
63818;SDS011;49970;54.976;73.248;2022-12-07T16:39:13;133.98;;;50.03;;
63818;SDS011;49970;54.976;73.248;2022-12-07T16:41:40;127.40;;;46.67;;
63818;SDS011;49970;54.976;73.248;2022-12-07T16:44:07;126.18;;;41.33;;
63818;SDS011;49970;54.976;73.248;2022-12-07T16:46:37;113.80;;;41.58;;